createdAt,value
2022-12-23T00:01:42.166Z,98054.66
2022-12-23T00:04:10.565Z,98070.19
2022-12-23T00:06:38.962Z,98062.13
2022-12-23T00:09:07.350Z,98063.56
2022-12-23T00:11:37.055Z,98062.66
2022-12-23T00:14:22.864Z,98075.06
2022-12-23T00:16:51.775Z,98080.13
2022-12-23T00:19:20.425Z,98085.41
2022-12-23T00:21:49.276Z,98094.88
2022-12-23T00:24:17.662Z,98091.19
2022-12-23T00:26:47.462Z,98096.38
2022-12-23T00:29:16.041Z,98100.75
2022-12-23T00:31:44.556Z,98090.81
2022-12-23T00:34:13.877Z,98095.28
2022-12-23T00:36:42.242Z,98090.00
2022-12-23T00:39:30.413Z,98090.16
2022-12-23T00:42:17.473Z,98093.59
2022-12-23T00:44:45.824Z,98102.22
2022-12-23T00:47:36.040Z,98101.06
2022-12-23T00:50:03.796Z,98102.72
2022-12-23T00:52:32.140Z,98101.88
2022-12-23T00:55:00.594Z,98104.63
2022-12-23T00:57:30.227Z,98117.66
2022-12-23T00:59:58.606Z,98128.19
2022-12-23T01:02:44.607Z,98117.56
2022-12-23T01:05:30.199Z,98129.72
2022-12-23T01:07:58.466Z,98125.38
2022-12-23T01:10:26.851Z,98121.13
2022-12-23T01:12:56.605Z,98114.94
2022-12-23T01:15:25.148Z,98115.28
2022-12-23T01:17:53.547Z,98129.22
2022-12-23T01:20:22.056Z,98114.63
2022-12-23T01:22:50.415Z,98135.53
2022-12-23T01:25:19.074Z,98141.41
2022-12-23T01:27:47.390Z,98150.41
2022-12-23T01:30:17.302Z,98149.28
2022-12-23T01:32:45.691Z,98147.75
2022-12-23T01:35:14.489Z,98144.34
2022-12-23T01:37:42.905Z,98153.81
2022-12-23T01:40:11.830Z,98146.72
2022-12-23T01:42:45.250Z,98147.75
2022-12-23T01:45:20.861Z,98163.56
2022-12-23T01:47:51.189Z,98160.25
2022-12-23T01:50:23.545Z,98168.09
2022-12-23T01:53:03.093Z,98175.06
2022-12-23T01:55:39.658Z,98162.00
2022-12-23T01:58:12.864Z,98168.94
2022-12-23T02:01:01.363Z,98173.41
2022-12-23T02:03:44.180Z,98173.28
2022-12-23T02:06:35.578Z,98186.72
2022-12-23T02:09:18.476Z,98196.34
2022-12-23T02:12:28.034Z,98198.13
2022-12-23T02:15:51.195Z,98192.09
2022-12-23T02:18:47.798Z,98184.31
2022-12-23T02:21:37.356Z,98187.94
2022-12-23T02:24:37.576Z,98193.25
2022-12-23T02:27:12.715Z,98194.84
2022-12-23T02:30:16.072Z,98197.59
2022-12-23T02:32:56.870Z,98206.59
2022-12-23T02:35:31.387Z,98202.41
2022-12-23T02:38:09.144Z,98205.41
2022-12-23T02:40:43.795Z,98198.09
2022-12-23T02:43:18.318Z,98205.97
2022-12-23T02:45:52.186Z,98221.56
2022-12-23T02:48:28.630Z,98228.84
2022-12-23T02:50:58.690Z,98235.72
2022-12-23T02:53:31.462Z,98240.75
2022-12-23T02:56:01.915Z,98246.16
2022-12-23T02:58:35.000Z,98242.00
2022-12-23T03:01:07.052Z,98247.88
2022-12-23T03:03:38.736Z,98248.97
2022-12-23T03:06:18.495Z,98240.34
2022-12-23T03:08:47.162Z,98251.78
2022-12-23T03:11:17.790Z,98256.22
2022-12-23T03:14:07.011Z,98254.59
2022-12-23T03:16:45.638Z,98254.72
2022-12-23T03:19:24.591Z,98265.06
2022-12-23T03:22:00.961Z,98274.94
2022-12-23T03:24:36.296Z,98281.19
2022-12-23T03:27:11.322Z,98284.53
2022-12-23T03:29:46.575Z,98245.16
2022-12-23T03:32:17.410Z,98250.22
2022-12-23T03:34:51.181Z,98257.22
2022-12-23T03:37:23.586Z,98276.03
2022-12-23T03:39:58.782Z,98239.22
2022-12-23T03:42:30.384Z,98266.44
2022-12-23T03:47:54.871Z,98240.94
2022-12-23T03:50:26.570Z,98248.38
2022-12-23T03:52:59.755Z,98243.22
2022-12-23T03:55:33.452Z,98237.91
2022-12-23T03:58:09.072Z,98225.84
2022-12-23T04:00:42.048Z,98239.00
2022-12-23T04:03:18.631Z,98214.94
2022-12-23T04:05:54.507Z,98203.63
2022-12-23T04:08:28.302Z,98240.72
2022-12-23T04:10:58.758Z,98206.19
2022-12-23T04:13:28.314Z,98219.91
2022-12-23T04:15:59.380Z,98203.63
2022-12-23T04:18:29.086Z,98209.84
2022-12-23T04:20:59.413Z,98215.00
2022-12-23T04:23:28.096Z,98207.03
2022-12-23T04:25:56.794Z,98220.53
2022-12-23T04:28:25.513Z,98210.03
2022-12-23T04:30:54.196Z,98252.94
2022-12-23T04:33:22.910Z,98241.69
2022-12-23T04:35:51.625Z,98261.41
2022-12-23T04:38:22.046Z,98234.72
2022-12-23T04:40:50.597Z,98231.91
2022-12-23T04:43:19.327Z,98237.91
2022-12-23T04:45:51.520Z,98250.75
2022-12-23T04:48:20.507Z,98217.91
2022-12-23T04:50:49.034Z,98239.28
2022-12-23T04:53:17.530Z,98255.28
2022-12-23T04:55:52.270Z,98246.38
2022-12-23T04:58:22.054Z,98217.34
2022-12-23T05:00:50.962Z,98222.25
2022-12-23T05:03:22.589Z,98223.28
2022-12-23T05:05:51.298Z,98244.66
2022-12-23T05:08:19.833Z,98229.84
2022-12-23T05:10:49.822Z,98245.50
2022-12-23T05:13:18.507Z,98257.56
2022-12-23T05:15:51.049Z,98237.91
2022-12-23T05:18:20.151Z,98272.50
2022-12-23T05:20:49.605Z,98261.97
2022-12-23T05:23:18.172Z,98258.81
2022-12-23T05:25:53.661Z,98279.50
2022-12-23T05:28:23.698Z,98240.81
2022-12-23T05:30:59.043Z,98261.56
2022-12-23T05:33:28.049Z,98273.47
2022-12-23T05:35:57.169Z,98252.22
2022-12-23T05:38:26.212Z,98248.69
2022-12-23T05:40:56.067Z,98271.63
2022-12-23T05:43:25.234Z,98278.88
2022-12-23T05:45:53.845Z,98291.75
2022-12-23T05:48:22.725Z,98282.22
2022-12-23T05:50:51.739Z,98291.00
2022-12-23T05:53:21.320Z,98299.81
2022-12-23T05:55:49.716Z,98300.88
2022-12-23T05:58:19.527Z,98280.78
2022-12-23T06:00:47.968Z,98285.88
2022-12-23T06:03:16.532Z,98289.38
2022-12-23T06:05:45.044Z,98292.09
2022-12-23T06:08:13.392Z,98293.00
2022-12-23T06:10:41.840Z,98296.47
2022-12-23T06:13:10.358Z,98285.22
2022-12-23T06:15:40.238Z,98286.84
2022-12-23T06:18:08.704Z,98271.16
2022-12-23T06:20:37.373Z,98273.75
2022-12-23T06:23:05.828Z,98273.97
2022-12-23T06:25:34.340Z,98267.69
2022-12-23T06:28:02.730Z,98269.69
2022-12-23T06:30:31.171Z,98254.03
2022-12-23T06:33:00.930Z,98264.56
2022-12-23T06:35:29.440Z,98257.59
2022-12-23T06:37:57.894Z,98267.97
2022-12-23T06:40:28.339Z,98259.13
2022-12-23T06:42:56.807Z,98258.31
2022-12-23T06:45:25.365Z,98255.56
2022-12-23T06:47:53.838Z,98256.28
2022-12-23T06:50:23.658Z,98258.16
2022-12-23T06:52:52.024Z,98266.13
2022-12-23T06:55:20.491Z,98261.66
2022-12-23T06:57:48.858Z,98276.31
2022-12-23T07:00:18.016Z,98295.63
2022-12-23T07:02:46.527Z,98298.38
2022-12-23T07:05:15.237Z,98299.19
2022-12-23T07:07:44.946Z,98307.13
2022-12-23T07:10:13.324Z,98295.75
2022-12-23T07:12:46.001Z,98292.16
2022-12-23T07:15:17.697Z,98301.47
2022-12-23T07:17:46.005Z,98311.94
2022-12-23T07:20:14.723Z,98311.19
2022-12-23T07:22:42.993Z,98308.56
2022-12-23T07:25:13.565Z,98303.34
2022-12-23T07:27:41.894Z,98304.31
2022-12-23T07:30:11.141Z,98300.66
2022-12-23T07:32:39.529Z,98297.22
2022-12-23T07:35:08.313Z,98302.63
2022-12-23T07:37:36.644Z,98302.50
2022-12-23T07:40:08.729Z,98299.97
2022-12-23T07:42:47.086Z,98302.66
2022-12-23T07:45:15.765Z,98307.91
2022-12-23T07:47:44.385Z,98307.13
2022-12-23T07:50:13.645Z,98298.25
2022-12-23T07:52:41.999Z,98301.09
2022-12-23T07:55:10.734Z,98292.72
2022-12-23T07:57:40.688Z,98295.28
2022-12-23T08:00:15.044Z,98289.91
2022-12-23T08:02:43.944Z,98293.50
2022-12-23T08:05:14.116Z,98283.97
2022-12-23T08:07:44.921Z,98300.63
2022-12-23T08:10:13.624Z,98296.34
2022-12-23T08:12:43.374Z,98295.28
2022-12-23T08:15:12.044Z,98293.47
2022-12-23T08:17:40.367Z,98294.53
2022-12-23T08:20:09.793Z,98289.91
2022-12-23T08:22:38.330Z,98281.22
2022-12-23T08:25:07.716Z,98289.31
2022-12-23T08:27:36.625Z,98290.13
2022-12-23T08:30:08.001Z,98297.16
2022-12-23T08:32:36.563Z,98286.69
2022-12-23T08:35:05.457Z,98290.94
2022-12-23T08:37:33.845Z,98294.41
2022-12-23T08:40:02.191Z,98277.41
2022-12-23T08:42:30.566Z,98281.81
2022-12-23T08:44:58.947Z,98282.78
2022-12-23T08:47:28.656Z,98279.41
2022-12-23T08:49:57.004Z,98282.88
2022-12-23T08:52:25.404Z,98280.16
2022-12-23T08:54:54.293Z,98269.00
2022-12-23T08:57:22.628Z,98267.00
2022-12-23T08:59:51.749Z,98278.75
2022-12-23T09:02:22.445Z,98288.50
2022-12-23T09:04:52.438Z,98271.25
2022-12-23T09:07:20.789Z,98266.47
2022-12-23T09:09:49.245Z,98260.72
2022-12-23T09:12:17.592Z,98253.91
2022-12-23T09:14:47.564Z,98247.91
2022-12-23T09:17:17.574Z,98250.34
2022-12-23T09:19:52.425Z,98253.06
2022-12-23T09:22:22.787Z,98238.13
2022-12-23T09:24:51.119Z,98236.94
2022-12-23T09:27:19.657Z,98233.22
2022-12-23T09:29:58.034Z,98228.88
2022-12-23T09:32:26.481Z,98223.34
2022-12-23T09:34:54.937Z,98211.13
2022-12-23T09:37:24.627Z,98204.75
2022-12-23T09:40:20.847Z,98202.78
2022-12-23T09:43:02.565Z,98189.63
2022-12-23T09:46:05.352Z,98182.16
2022-12-23T09:48:37.703Z,98178.56
2022-12-23T09:51:22.721Z,98181.09
2022-12-23T09:54:01.651Z,98162.59
2022-12-23T09:56:38.906Z,98169.53
2022-12-23T09:59:34.328Z,98166.91
2022-12-23T10:02:19.757Z,98157.09
2022-12-23T10:05:04.132Z,98163.16
2022-12-23T10:07:38.239Z,98164.97
2022-12-23T10:13:26.442Z,98158.25
2022-12-23T10:16:26.977Z,98153.19
2022-12-23T10:19:00.918Z,98139.09
2022-12-23T10:21:42.265Z,98149.72
2022-12-23T10:24:17.798Z,98142.00
2022-12-23T10:26:53.857Z,98139.47
2022-12-23T10:29:32.260Z,98133.56
2022-12-23T10:32:16.245Z,98126.03
2022-12-23T10:34:53.445Z,98122.00
2022-12-23T10:37:43.294Z,98110.47
2022-12-23T10:40:21.700Z,98112.59
2022-12-23T10:43:08.158Z,98099.63
2022-12-23T10:45:48.012Z,98098.03
2022-12-23T10:48:28.853Z,98099.84
2022-12-23T10:51:09.405Z,98087.75
2022-12-23T10:53:42.916Z,98082.44
2022-12-23T10:56:11.954Z,98078.13
2022-12-23T10:59:00.809Z,98076.94
2022-12-23T11:01:31.194Z,98062.97
2022-12-23T11:04:07.444Z,98066.91
2022-12-23T11:07:10.682Z,98067.03
2022-12-23T11:09:41.693Z,98065.31
2022-12-23T11:12:16.298Z,98059.16
2022-12-23T11:14:53.682Z,98050.28
2022-12-23T11:17:23.947Z,98044.84
2022-12-23T11:20:13.919Z,98020.44
2022-12-23T11:22:48.842Z,98006.34
2022-12-23T11:25:32.532Z,97996.88
2022-12-23T11:28:16.118Z,97978.22
2022-12-23T11:30:56.973Z,97968.47
2022-12-23T11:33:28.940Z,97959.81
2022-12-23T11:36:15.776Z,97950.38
2022-12-23T11:38:51.667Z,97946.66
2022-12-23T11:41:23.279Z,97936.38
2022-12-23T11:44:05.189Z,97930.47
2022-12-23T11:46:36.243Z,97923.44
2022-12-23T11:49:07.916Z,97916.66
2022-12-23T11:51:36.292Z,97924.50
2022-12-23T11:54:17.191Z,97918.84
2022-12-23T11:56:45.687Z,97914.25
2022-12-23T11:59:28.203Z,97915.47
2022-12-23T12:02:04.635Z,97907.72
2022-12-23T12:04:36.636Z,97902.41
2022-12-23T12:07:07.760Z,97881.44
2022-12-23T12:09:46.529Z,97866.31
2022-12-23T12:12:20.992Z,97854.00
2022-12-23T12:14:52.494Z,97859.75
2022-12-23T12:17:27.608Z,97851.44
2022-12-23T12:20:05.807Z,97824.00
2022-12-23T12:22:40.111Z,97815.25
2022-12-23T12:25:19.394Z,97809.19
2022-12-23T12:28:00.985Z,97817.78
2022-12-23T12:30:35.091Z,97828.25
2022-12-23T12:33:15.559Z,97821.28
2022-12-23T12:35:53.636Z,97830.34
2022-12-23T12:38:26.793Z,97814.09
2022-12-23T12:41:01.633Z,97812.16
2022-12-23T12:43:49.607Z,97798.56
2022-12-23T12:46:32.112Z,97801.59
2022-12-23T12:49:22.652Z,97789.75
2022-12-23T12:51:58.011Z,97781.72
2022-12-23T12:54:31.634Z,97782.19
2022-12-23T12:57:19.632Z,97774.75
2022-12-23T12:59:51.427Z,97778.00
2022-12-23T13:02:59.607Z,97771.75
2022-12-23T13:05:51.809Z,97756.38
2022-12-23T13:08:50.948Z,97755.34
2022-12-23T13:11:28.756Z,97743.81
2022-12-23T13:14:25.787Z,97749.16
2022-12-23T13:17:05.929Z,97739.22
2022-12-23T13:19:50.933Z,97743.09
2022-12-23T13:22:31.478Z,97712.72
2022-12-23T13:25:06.895Z,97741.16
2022-12-23T13:27:58.549Z,97732.69
2022-12-23T13:30:32.309Z,97721.47
2022-12-23T13:33:26.899Z,97715.88
2022-12-23T13:36:09.091Z,97705.66
2022-12-23T13:39:04.915Z,97719.00
2022-12-23T13:41:45.031Z,97710.78
2022-12-23T13:44:15.062Z,97708.31
2022-12-23T13:47:00.443Z,97715.72
2022-12-23T13:49:51.741Z,97702.94
2022-12-23T13:52:45.289Z,97715.78
2022-12-23T13:55:25.994Z,97699.63
2022-12-23T13:58:02.414Z,97700.25
2022-12-23T14:00:32.822Z,97698.38
2022-12-23T14:03:19.994Z,97693.94
2022-12-23T14:05:58.016Z,97710.69
2022-12-23T14:08:41.129Z,97691.28
2022-12-23T14:11:21.147Z,97702.50
2022-12-23T14:13:56.140Z,97691.59
2022-12-23T14:16:50.330Z,97694.84
2022-12-23T14:19:36.920Z,97703.53
2022-12-23T14:22:21.180Z,97700.13
2022-12-23T14:25:17.129Z,97697.28
2022-12-23T14:27:59.070Z,97702.16
2022-12-23T14:30:46.545Z,97700.63
2022-12-23T14:33:24.972Z,97712.03
2022-12-23T14:35:57.688Z,97711.50
2022-12-23T14:38:42.476Z,97704.09
2022-12-23T14:41:24.543Z,97709.19
2022-12-23T14:43:57.344Z,97703.91
2022-12-23T14:46:59.479Z,97714.22
2022-12-23T14:49:44.370Z,97710.72
2022-12-23T14:52:44.638Z,97715.84
2022-12-23T14:55:46.306Z,97721.63
2022-12-23T14:58:27.713Z,97726.72
2022-12-23T15:01:10.023Z,97717.59
2022-12-23T15:03:44.299Z,97715.47
2022-12-23T15:06:19.044Z,97716.41
2022-12-23T15:08:56.467Z,97735.31
2022-12-23T15:11:29.275Z,97742.22
2022-12-23T15:14:01.212Z,97735.84
2022-12-23T15:16:37.585Z,97743.31
2022-12-23T15:19:18.956Z,97739.16
2022-12-23T15:21:53.734Z,97752.44
2022-12-23T15:24:27.348Z,97766.25
2022-12-23T15:27:25.360Z,97761.75
2022-12-23T15:29:48.482Z,97756.47
2022-12-23T15:32:19.413Z,97756.63
2022-12-23T15:34:49.151Z,97776.09
2022-12-23T15:37:23.262Z,97776.47
2022-12-23T15:40:00.297Z,97759.03
2022-12-23T15:42:35.356Z,97787.19
2022-12-23T15:49:20.186Z,97811.69
2022-12-23T15:52:07.761Z,97813.13
2022-12-23T15:54:43.932Z,97815.53
2022-12-23T15:57:18.827Z,97830.53
2022-12-23T15:59:47.333Z,97842.47
2022-12-23T16:05:10.988Z,97844.41
2022-12-23T16:07:40.771Z,97868.16
2022-12-23T16:10:16.419Z,97873.00
2022-12-23T16:12:45.349Z,97856.56
2022-12-23T16:15:21.938Z,97883.81
2022-12-23T16:17:50.354Z,97874.91
2022-12-23T16:20:27.555Z,97864.84
2022-12-23T16:22:58.546Z,97880.75
2022-12-23T16:25:32.798Z,97887.16
2022-12-23T16:28:05.160Z,97885.47
2022-12-23T16:30:38.283Z,97888.34
2022-12-23T16:33:08.611Z,97892.78
2022-12-23T16:35:44.531Z,97907.00
2022-12-23T16:38:20.025Z,97915.75
2022-12-23T16:40:52.901Z,97886.47
2022-12-23T16:43:39.059Z,97912.88
2022-12-23T16:46:20.360Z,97927.03
2022-12-23T16:48:55.514Z,97918.00
2022-12-23T16:51:30.748Z,97895.47
2022-12-23T16:54:07.676Z,97900.75
2022-12-23T16:56:39.002Z,97924.00
2022-12-23T16:59:16.705Z,97919.81
2022-12-23T17:01:50.215Z,97940.38
2022-12-23T17:04:46.226Z,97948.84
2022-12-23T17:07:15.175Z,97948.84
2022-12-23T17:09:46.224Z,97922.47
2022-12-23T17:12:26.348Z,97923.72
2022-12-23T17:14:55.032Z,97942.41
2022-12-23T17:17:25.850Z,97961.66
2022-12-23T17:19:58.599Z,97959.34
2022-12-23T17:22:34.135Z,97951.97
2022-12-23T17:25:02.841Z,97978.44
2022-12-23T17:27:31.286Z,97984.81
2022-12-23T17:29:59.635Z,97967.97
2022-12-23T17:32:28.357Z,97976.88
2022-12-23T17:34:56.901Z,97982.78
2022-12-23T17:37:25.344Z,97987.22
2022-12-23T17:39:55.057Z,97991.72
2022-12-23T17:42:26.135Z,97982.47
2022-12-23T17:44:54.724Z,98001.78
2022-12-23T17:47:23.611Z,97982.84
2022-12-23T17:49:52.125Z,97987.22
2022-12-23T17:52:23.498Z,98000.47
2022-12-23T17:54:52.591Z,97990.09
2022-12-23T17:57:24.849Z,97999.06
2022-12-23T17:59:56.756Z,97995.19
2022-12-23T18:02:27.271Z,98001.47
2022-12-23T18:04:55.749Z,97998.06
2022-12-23T18:07:24.079Z,98000.41
2022-12-23T18:09:52.713Z,98010.41
2022-12-23T18:12:31.667Z,98005.75
2022-12-23T18:15:00.676Z,98019.34
2022-12-23T18:17:29.331Z,98006.91
2022-12-23T18:19:57.655Z,98031.56
2022-12-23T18:22:27.598Z,98018.56
2022-12-23T18:24:59.364Z,98043.91
2022-12-23T18:27:29.412Z,98037.94
2022-12-23T18:29:57.777Z,98032.66
2022-12-23T18:32:28.554Z,98041.75
2022-12-23T18:34:57.326Z,98046.56
2022-12-23T18:37:26.103Z,98044.78
2022-12-23T18:39:54.527Z,98054.00
2022-12-23T18:42:23.098Z,98058.97
2022-12-23T18:44:52.851Z,98057.41
2022-12-23T18:47:21.309Z,98071.38
2022-12-23T18:49:49.681Z,98068.69
2022-12-23T18:52:18.097Z,98077.66
2022-12-23T18:54:46.658Z,98064.72
2022-12-23T18:57:15.006Z,98067.69
2022-12-23T18:59:43.465Z,98060.34
2022-12-23T19:02:15.137Z,98060.28
2022-12-23T19:04:43.706Z,98069.31
2022-12-23T19:07:12.484Z,98073.00
2022-12-23T19:09:40.960Z,98076.84
2022-12-23T19:12:09.284Z,98076.44
2022-12-23T19:14:39.722Z,98075.78
2022-12-23T19:17:08.704Z,98072.25
2022-12-23T19:19:38.440Z,98067.19
2022-12-23T19:22:06.849Z,98067.75
2022-12-23T19:24:35.296Z,98072.25
2022-12-23T19:27:03.727Z,98084.91
2022-12-23T19:29:32.063Z,98089.03
2022-12-23T19:32:00.420Z,98088.34
2022-12-23T19:34:28.750Z,98098.59
2022-12-23T19:36:58.423Z,98100.38
2022-12-23T19:39:26.947Z,98097.28
2022-12-23T19:41:55.380Z,98106.97
2022-12-23T19:44:23.732Z,98106.91
2022-12-23T19:46:52.164Z,98113.75
2022-12-23T19:49:20.695Z,98103.16
2022-12-23T19:51:49.535Z,98120.03
2022-12-23T19:54:20.283Z,98118.75
2022-12-23T19:56:51.175Z,98131.84
2022-12-23T19:59:19.866Z,98138.00
2022-12-23T20:01:48.428Z,98129.53
2022-12-23T20:04:17.233Z,98134.47
2022-12-23T20:06:45.634Z,98130.00
2022-12-23T20:09:14.603Z,98127.28
2022-12-23T20:11:46.251Z,98134.47
2022-12-23T20:14:16.435Z,98147.53
2022-12-23T20:16:45.048Z,98166.91
2022-12-23T20:19:13.431Z,98163.38
2022-12-23T20:21:41.826Z,98159.16
2022-12-23T20:24:10.495Z,98172.47
2022-12-23T20:26:38.940Z,98176.63
2022-12-23T20:29:09.396Z,98165.44
2022-12-23T20:31:39.272Z,98173.81
2022-12-23T20:34:09.322Z,98189.00
2022-12-23T20:36:38.467Z,98186.75
2022-12-23T20:39:07.118Z,98185.03
2022-12-23T20:41:35.978Z,98202.13
2022-12-23T20:46:54.736Z,98197.19
2022-12-23T20:49:23.317Z,98202.78
2022-12-23T20:51:51.646Z,98201.91
2022-12-23T20:54:24.906Z,98232.75
2022-12-23T20:56:56.492Z,98230.66
2022-12-23T20:59:24.912Z,98227.75
2022-12-23T21:01:54.958Z,98224.75
2022-12-23T21:04:23.512Z,98223.69
2022-12-23T21:06:51.851Z,98230.75
2022-12-23T21:09:20.392Z,98242.72
2022-12-23T21:11:48.917Z,98237.66
2022-12-23T21:14:17.289Z,98242.63
2022-12-23T21:16:46.467Z,98261.84
2022-12-23T21:19:19.579Z,98275.84
2022-12-23T21:21:49.522Z,98261.84
2022-12-23T21:24:18.950Z,98268.44
2022-12-23T21:26:55.707Z,98275.00
2022-12-23T21:29:25.462Z,98276.81
2022-12-23T21:31:54.893Z,98279.63
2022-12-23T21:34:24.966Z,98285.06
2022-12-23T21:36:53.572Z,98279.28
2022-12-23T21:39:22.097Z,98283.41
2022-12-23T21:41:51.321Z,98300.03
2022-12-23T21:44:19.833Z,98299.13
2022-12-23T21:46:50.953Z,98301.81
2022-12-23T21:49:21.050Z,98308.97
2022-12-23T21:51:50.972Z,98313.53
2022-12-23T21:54:19.480Z,98308.72
2022-12-23T21:56:47.756Z,98310.66
2022-12-23T21:59:16.148Z,98321.34
2022-12-23T22:01:44.878Z,98328.25
2022-12-23T22:04:13.557Z,98320.00
2022-12-23T22:06:44.498Z,98321.50
2022-12-23T22:09:16.320Z,98334.22
2022-12-23T22:11:44.943Z,98344.75
2022-12-23T22:14:15.813Z,98349.03
2022-12-23T22:16:44.525Z,98355.16
2022-12-23T22:19:13.386Z,98348.19
2022-12-23T22:21:42.510Z,98365.69
2022-12-23T22:24:11.657Z,98372.66
2022-12-23T22:26:41.945Z,98370.03
2022-12-23T22:29:12.480Z,98382.16
2022-12-23T22:31:44.439Z,98391.91
2022-12-23T22:34:15.047Z,98382.34
2022-12-23T22:36:43.829Z,98394.69
2022-12-23T22:39:20.119Z,98384.94
2022-12-23T22:41:52.126Z,98394.88
2022-12-23T22:44:21.400Z,98394.88
2022-12-23T22:46:49.962Z,98407.09
2022-12-23T22:49:18.597Z,98404.84
2022-12-23T22:51:47.190Z,98416.06
2022-12-23T22:54:15.792Z,98408.41
2022-12-23T22:56:46.545Z,98413.00
2022-12-23T22:59:24.298Z,98427.56
2022-12-23T23:01:53.904Z,98429.41
2022-12-23T23:04:22.368Z,98436.41
2022-12-23T23:06:50.985Z,98431.38
2022-12-23T23:09:21.614Z,98434.81
2022-12-23T23:11:50.289Z,98432.97
2022-12-23T23:14:19.557Z,98432.22
2022-12-23T23:16:49.543Z,98427.81
2022-12-23T23:19:20.267Z,98416.50
2022-12-23T23:21:49.038Z,98428.69
2022-12-23T23:24:17.477Z,98431.38
2022-12-23T23:26:45.893Z,98422.50
2022-12-23T23:29:14.384Z,98425.19
2022-12-23T23:31:43.858Z,98437.00
2022-12-23T23:34:14.489Z,98437.63
2022-12-23T23:36:43.137Z,98437.31
2022-12-23T23:39:12.854Z,98433.88
2022-12-23T23:41:41.970Z,98435.72
2022-12-23T23:44:10.452Z,98435.81
2022-12-23T23:46:39.146Z,98444.78
2022-12-23T23:49:07.474Z,98441.97
2022-12-23T23:51:37.479Z,98446.16
2022-12-23T23:54:07.319Z,98438.53
2022-12-23T23:56:39.222Z,98445.59
2022-12-23T23:59:08.542Z,98427.16
